createdAt,value
2018-06-09T00:01:50.176Z,66.63
2018-06-09T00:04:18.763Z,68.57
2018-06-09T00:06:47.358Z,64.07
2018-06-09T00:09:15.875Z,63.80
2018-06-09T00:11:44.533Z,69.10
2018-06-09T00:14:13.607Z,67.83
2018-06-09T00:16:52.492Z,68.77
2018-06-09T00:19:21.122Z,62.67
2018-06-09T00:21:49.736Z,66.03
2018-06-09T00:24:18.230Z,68.90
2018-06-09T00:26:47.217Z,65.93
2018-06-09T00:29:15.728Z,73.20
2018-06-09T00:31:44.276Z,69.40
2018-06-09T00:34:12.788Z,66.07
2018-06-09T00:36:41.368Z,68.77
2018-06-09T00:39:09.884Z,70.93
2018-06-09T00:41:38.509Z,72.43
2018-06-09T00:44:07.282Z,74.57
2018-06-09T00:46:36.305Z,71.83
2018-06-09T00:49:04.956Z,71.27
2018-06-09T00:51:33.542Z,73.37
2018-06-09T00:54:02.101Z,74.33
2018-06-09T00:56:41.820Z,77.67
2018-06-09T00:59:10.583Z,76.47
2018-06-09T01:01:39.287Z,74.23
2018-06-09T01:04:07.950Z,81.40
2018-06-09T01:06:36.618Z,79.97
2018-06-09T01:09:09.824Z,81.07
2018-06-09T01:11:38.527Z,80.93
2018-06-09T01:14:07.181Z,81.23
2018-06-09T01:16:36.002Z,82.30
2018-06-09T01:19:04.661Z,80.83
2018-06-09T01:21:33.340Z,82.23
2018-06-09T01:24:02.115Z,83.23
2018-06-09T01:26:30.736Z,83.10
2018-06-09T01:28:59.453Z,82.93
2018-06-09T01:31:28.136Z,80.43
2018-06-09T01:33:56.765Z,80.33
2018-06-09T01:36:25.504Z,81.70
2018-06-09T01:38:54.254Z,83.10
2018-06-09T01:41:22.920Z,82.73
2018-06-09T01:43:51.644Z,77.57
2018-06-09T01:46:20.380Z,79.73
2018-06-09T01:48:49.068Z,82.03
2018-06-09T01:51:17.739Z,80.40
2018-06-09T01:53:46.600Z,80.70
2018-06-09T01:56:15.159Z,82.23
2018-06-09T01:58:43.821Z,82.33
2018-06-09T02:01:12.419Z,80.77
2018-06-09T02:03:41.018Z,79.50
2018-06-09T02:06:09.693Z,80.10
2018-06-09T02:08:38.239Z,80.20
2018-06-09T02:11:06.779Z,80.67
2018-06-09T02:13:35.311Z,79.73
2018-06-09T02:16:03.817Z,79.70
2018-06-09T02:18:32.401Z,77.47
2018-06-09T02:21:01.023Z,79.00
2018-06-09T02:23:29.653Z,77.33
2018-06-09T02:25:58.300Z,77.63
2018-06-09T02:28:26.800Z,76.90
2018-06-09T02:30:55.367Z,75.13
2018-06-09T02:33:23.906Z,77.67
2018-06-09T02:35:52.411Z,76.73
2018-06-09T02:38:21.001Z,76.07
2018-06-09T02:40:49.490Z,75.43
2018-06-09T02:43:18.071Z,73.20
2018-06-09T02:45:47.022Z,76.77
2018-06-09T02:48:15.609Z,75.03
2018-06-09T02:50:44.277Z,74.70
2018-06-09T02:53:12.885Z,74.33
2018-06-09T02:55:41.668Z,76.20
2018-06-09T02:58:10.203Z,74.97
2018-06-09T03:00:38.785Z,76.23
2018-06-09T03:03:07.399Z,74.87
2018-06-09T03:05:35.874Z,76.77
2018-06-09T03:08:04.732Z,75.00
2018-06-09T03:10:33.276Z,79.30
2018-06-09T03:13:01.991Z,74.77
2018-06-09T03:15:30.487Z,80.70
2018-06-09T03:17:59.028Z,75.40
2018-06-09T03:20:27.499Z,76.77
2018-06-09T03:22:57.140Z,78.27
2018-06-09T03:25:25.639Z,77.83
2018-06-09T03:27:54.147Z,76.40
2018-06-09T03:30:22.778Z,76.83
2018-06-09T03:32:51.327Z,78.03
2018-06-09T03:35:19.948Z,76.63
2018-06-09T03:37:48.496Z,75.13
2018-06-09T03:40:17.085Z,77.33
2018-06-09T03:42:45.589Z,76.33
2018-06-09T03:45:14.310Z,76.87
2018-06-09T03:47:43.152Z,74.53
2018-06-09T03:50:11.875Z,74.27
2018-06-09T03:52:40.633Z,75.83
2018-06-09T03:55:09.464Z,74.27
2018-06-09T03:57:38.082Z,73.93
2018-06-09T04:00:06.783Z,71.20
2018-06-09T04:02:35.356Z,72.93
2018-06-09T04:05:03.988Z,72.43
2018-06-09T04:07:32.497Z,75.20
2018-06-09T04:10:01.064Z,71.70
2018-06-09T04:12:29.596Z,72.20
2018-06-09T04:14:58.229Z,70.00
2018-06-09T04:17:26.727Z,67.83
2018-06-09T04:19:55.266Z,70.07
2018-06-09T04:22:23.795Z,69.10
2018-06-09T04:24:52.392Z,65.47
2018-06-09T04:27:20.948Z,64.33
2018-06-09T04:29:49.481Z,64.77
2018-06-09T04:32:18.108Z,63.27
2018-06-09T04:34:46.691Z,60.63
2018-06-09T04:37:15.305Z,62.60
2018-06-09T04:39:43.872Z,60.43
2018-06-09T04:42:12.433Z,59.67
2018-06-09T04:44:41.124Z,59.80
2018-06-09T04:47:09.668Z,66.83
2018-06-09T04:49:38.284Z,57.93
2018-06-09T04:52:06.923Z,54.93
2018-06-09T04:54:35.427Z,52.20
2018-06-09T04:57:04.022Z,51.37
2018-06-09T04:59:32.611Z,49.43
2018-06-09T05:02:01.258Z,46.60
2018-06-09T05:04:29.951Z,44.60
2018-06-09T05:06:58.588Z,46.90
2018-06-09T05:09:27.174Z,45.20
2018-06-09T05:11:55.680Z,44.77
2018-06-09T05:14:24.230Z,47.73
2018-06-09T05:16:52.749Z,46.07
2018-06-09T05:19:21.509Z,46.77
2018-06-09T05:21:50.087Z,43.93
2018-06-09T05:24:18.611Z,40.33
2018-06-09T05:26:47.174Z,39.70
2018-06-09T05:29:15.847Z,39.67
2018-06-09T05:31:44.446Z,44.30
2018-06-09T05:34:13.243Z,43.67
2018-06-09T05:36:41.969Z,39.40
2018-06-09T05:39:10.585Z,41.20
2018-06-09T05:41:39.240Z,40.83
2018-06-09T05:44:07.785Z,40.33
2018-06-09T05:46:36.440Z,39.63
2018-06-09T05:49:05.017Z,40.00
2018-06-09T05:51:33.535Z,38.37
2018-06-09T05:54:02.113Z,37.83
2018-06-09T05:56:30.638Z,39.23
2018-06-09T05:58:59.321Z,36.70
2018-06-09T06:01:27.910Z,39.00
2018-06-09T06:03:56.500Z,36.17
2018-06-09T06:06:25.287Z,34.00
2018-06-09T06:08:53.898Z,35.20
2018-06-09T06:11:22.437Z,31.90
2018-06-09T06:13:50.990Z,30.50
2018-06-09T06:16:19.617Z,31.63
2018-06-09T06:18:48.185Z,31.37
2018-06-09T06:21:16.769Z,29.63
2018-06-09T06:23:45.408Z,30.63
2018-06-09T06:26:14.271Z,29.57
2018-06-09T06:28:42.842Z,26.63
2018-06-09T06:31:11.433Z,26.33
2018-06-09T06:33:40.007Z,29.50
2018-06-09T06:36:08.581Z,30.20
2018-06-09T06:38:37.168Z,29.20
2018-06-09T06:41:05.964Z,29.00
2018-06-09T06:43:34.966Z,27.03
2018-06-09T06:46:03.523Z,25.53
2018-06-09T06:48:32.043Z,27.30
2018-06-09T06:51:00.740Z,27.20
2018-06-09T06:53:29.419Z,28.07
2018-06-09T06:55:58.105Z,26.47
2018-06-09T06:58:26.808Z,28.23
2018-06-09T07:00:55.392Z,29.27
2018-06-09T07:03:24.228Z,25.77
2018-06-09T07:05:53.140Z,29.57
2018-06-09T07:08:21.822Z,27.85
2018-06-09T07:10:50.715Z,26.90
2018-06-09T07:13:19.648Z,33.83
2018-06-09T07:15:48.415Z,27.22
2018-06-09T07:18:17.221Z,29.15
2018-06-09T07:20:46.055Z,28.50
2018-06-09T07:23:14.833Z,36.83
2018-06-09T07:25:43.456Z,32.25
2018-06-09T07:28:12.171Z,31.07
2018-06-09T07:30:40.734Z,29.35
2018-06-09T07:33:09.531Z,32.58
2018-06-09T07:35:38.324Z,30.40
2018-06-09T07:38:07.008Z,29.92
2018-06-09T07:40:35.749Z,31.15
2018-06-09T07:43:04.457Z,31.07
2018-06-09T07:45:33.175Z,33.33
2018-06-09T07:48:01.844Z,41.80
2018-06-09T07:50:30.505Z,35.00
2018-06-09T07:52:59.336Z,29.50
2018-06-09T07:55:27.949Z,29.98
2018-06-09T07:57:57.028Z,30.20
2018-06-09T08:00:30.530Z,30.72
2018-06-09T08:02:59.817Z,29.90
2018-06-09T08:05:28.792Z,28.90
2018-06-09T08:07:57.780Z,29.65
2018-06-09T08:10:31.558Z,28.83
2018-06-09T08:13:00.751Z,29.00
2018-06-09T08:15:29.904Z,30.62
2018-06-09T08:17:58.925Z,31.55
2018-06-09T08:20:27.716Z,30.60
2018-06-09T08:22:56.430Z,31.23
2018-06-09T08:25:26.418Z,30.92
2018-06-09T08:27:55.064Z,30.43
2018-06-09T08:30:23.786Z,27.27
2018-06-09T08:32:52.543Z,30.48
2018-06-09T08:35:21.268Z,31.57
2018-06-09T08:37:49.941Z,29.02
2018-06-09T08:40:18.796Z,28.90
2018-06-09T08:42:47.786Z,26.12
2018-06-09T08:45:16.948Z,25.88
2018-06-09T08:47:45.713Z,25.92
2018-06-09T08:50:14.523Z,25.52
2018-06-09T08:52:43.205Z,26.35
2018-06-09T08:55:12.194Z,23.75
2018-06-09T08:57:41.074Z,22.67
2018-06-09T09:00:09.913Z,22.20
2018-06-09T09:02:38.806Z,24.55
2018-06-09T09:05:07.545Z,23.50
2018-06-09T09:07:36.248Z,24.70
2018-06-09T09:10:04.872Z,24.65
2018-06-09T09:12:33.653Z,24.07
2018-06-09T09:15:02.390Z,23.87
2018-06-09T09:17:31.262Z,24.43
2018-06-09T09:20:00.022Z,24.87
2018-06-09T09:22:28.979Z,26.02
2018-06-09T09:24:57.873Z,23.62
2018-06-09T09:27:26.685Z,26.42
2018-06-09T09:29:55.321Z,27.35
2018-06-09T09:32:24.048Z,21.82
2018-06-09T09:34:52.670Z,23.73
2018-06-09T09:37:21.431Z,22.82
2018-06-09T09:39:50.068Z,22.20
2018-06-09T09:42:18.727Z,23.52
2018-06-09T09:44:47.262Z,22.90
2018-06-09T09:47:15.908Z,23.47
2018-06-09T09:49:45.729Z,22.00
2018-06-09T09:52:14.500Z,22.05
2018-06-09T09:54:43.310Z,21.02
2018-06-09T09:57:12.397Z,21.80
2018-06-09T09:59:41.283Z,22.02
2018-06-09T10:02:11.154Z,23.12
2018-06-09T10:04:40.253Z,22.25
2018-06-09T10:07:09.781Z,21.17
2018-06-09T10:09:38.996Z,23.40
2018-06-09T10:12:07.867Z,23.85
2018-06-09T10:14:36.677Z,23.18
2018-06-09T10:17:05.456Z,23.10
2018-06-09T10:19:34.140Z,22.52
2018-06-09T10:22:03.064Z,21.40
2018-06-09T10:24:31.839Z,29.63
2018-06-09T10:27:00.467Z,23.92
2018-06-09T10:29:29.333Z,23.25
2018-06-09T10:31:57.965Z,22.32
2018-06-09T10:34:26.739Z,19.48
2018-06-09T10:36:55.493Z,19.05
2018-06-09T10:39:24.186Z,21.20
2018-06-09T10:41:52.791Z,23.07
2018-06-09T10:44:21.396Z,20.50
2018-06-09T10:46:50.424Z,19.95
2018-06-09T10:49:19.022Z,21.97
2018-06-09T10:51:48.384Z,20.48
2018-06-09T10:54:17.098Z,20.02
2018-06-09T10:56:45.721Z,19.65
2018-06-09T10:59:14.496Z,22.85
2018-06-09T11:01:43.692Z,21.17
2018-06-09T11:04:12.272Z,21.37
2018-06-09T11:06:41.488Z,20.68
2018-06-09T11:09:10.228Z,21.27
2018-06-09T11:11:38.991Z,22.17
2018-06-09T11:14:07.654Z,22.20
2018-06-09T11:16:36.355Z,22.37
2018-06-09T11:19:05.234Z,20.25
2018-06-09T11:21:33.924Z,21.23
2018-06-09T11:24:02.565Z,20.27
2018-06-09T11:26:31.873Z,20.57
2018-06-09T11:29:06.155Z,17.90
2018-06-09T11:31:35.162Z,18.60
2018-06-09T11:34:03.903Z,19.12
2018-06-09T11:36:32.735Z,19.02
2018-06-09T11:39:01.366Z,19.92
2018-06-09T11:41:30.109Z,21.55
2018-06-09T11:43:58.888Z,20.82
2018-06-09T11:46:27.729Z,18.73
2018-06-09T11:48:56.417Z,18.77
2018-06-09T11:51:25.155Z,17.67
2018-06-09T11:53:53.985Z,17.75
2018-06-09T11:56:22.559Z,17.82
2018-06-09T11:58:51.069Z,16.62
2018-06-09T12:01:19.660Z,16.45
2018-06-09T12:03:48.275Z,16.67
2018-06-09T12:06:16.904Z,16.65
2018-06-09T12:08:45.500Z,16.90
2018-06-09T12:11:14.082Z,15.80
2018-06-09T12:13:42.722Z,19.17
2018-06-09T12:16:11.396Z,18.52
2018-06-09T12:18:40.089Z,18.23
2018-06-09T12:21:08.645Z,18.62
2018-06-09T12:23:37.207Z,18.52
2018-06-09T12:26:05.779Z,19.17
2018-06-09T12:28:34.477Z,21.30
2018-06-09T12:31:03.136Z,22.50
2018-06-09T12:33:31.953Z,23.62
2018-06-09T12:36:01.484Z,22.67
2018-06-09T12:38:30.611Z,24.65
2018-06-09T12:41:00.222Z,22.82
2018-06-09T12:43:29.994Z,21.95
2018-06-09T12:45:58.909Z,24.05
2018-06-09T12:48:27.792Z,21.90
2018-06-09T12:50:56.685Z,20.12
2018-06-09T12:53:25.477Z,19.77
2018-06-09T12:55:54.597Z,20.43
2018-06-09T12:58:23.661Z,20.95
2018-06-09T13:00:52.622Z,22.17
2018-06-09T13:03:21.546Z,20.17
2018-06-09T13:05:50.853Z,20.70
2018-06-09T13:08:20.294Z,20.90
2018-06-09T13:10:48.948Z,21.02
2018-06-09T13:13:18.239Z,22.42
2018-06-09T13:15:47.239Z,20.37
2018-06-09T13:18:16.433Z,21.62
2018-06-09T13:20:45.558Z,19.70
2018-06-09T13:23:14.217Z,21.77
2018-06-09T13:25:43.056Z,20.00
2018-06-09T13:28:11.597Z,20.45
2018-06-09T13:30:40.173Z,20.52
2018-06-09T13:33:09.257Z,21.37
2018-06-09T13:35:37.797Z,18.05
2018-06-09T13:38:06.478Z,20.60
2018-06-09T13:40:35.155Z,20.70
2018-06-09T13:43:03.745Z,20.90
2018-06-09T13:45:32.359Z,21.33
2018-06-09T13:48:00.934Z,20.02
2018-06-09T13:50:29.540Z,18.75
2018-06-09T13:52:58.521Z,20.23
2018-06-09T13:55:27.101Z,21.05
2018-06-09T13:57:56.117Z,20.08
2018-06-09T14:00:24.841Z,18.42
2018-06-09T14:02:53.441Z,18.95
2018-06-09T14:05:22.245Z,21.57
2018-06-09T14:07:51.034Z,19.45
2018-06-09T14:10:19.728Z,23.52
2018-06-09T14:12:48.364Z,21.12
2018-06-09T14:15:16.948Z,22.20
2018-06-09T14:17:45.648Z,23.40
2018-06-09T14:20:14.493Z,21.93
2018-06-09T14:22:43.092Z,21.75
2018-06-09T14:25:11.662Z,20.90
2018-06-09T14:27:40.276Z,19.80
2018-06-09T14:30:08.868Z,20.90
2018-06-09T14:32:37.655Z,21.70
2018-06-09T14:35:06.809Z,23.30
2018-06-09T14:37:35.598Z,21.23
2018-06-09T14:40:04.209Z,21.52
2018-06-09T14:42:32.895Z,21.05
2018-06-09T14:45:01.560Z,23.38
2018-06-09T14:47:30.175Z,20.50
2018-06-09T14:49:59.028Z,21.25
2018-06-09T14:52:27.816Z,21.27
2018-06-09T14:54:56.604Z,20.57
2018-06-09T14:57:25.229Z,20.80
2018-06-09T14:59:53.899Z,20.68
2018-06-09T15:02:22.852Z,22.80
2018-06-09T15:04:52.140Z,31.03
2018-06-09T15:07:20.920Z,17.92
2018-06-09T15:09:49.654Z,19.63
2018-06-09T15:12:18.521Z,18.17
2018-06-09T15:14:47.484Z,16.97
2018-06-09T15:17:16.314Z,17.32
2018-06-09T15:19:46.379Z,19.27
2018-06-09T15:22:16.293Z,18.90
2018-06-09T15:24:45.388Z,18.23
2018-06-09T15:27:14.245Z,19.87
2018-06-09T15:29:43.890Z,20.57
2018-06-09T15:32:12.881Z,20.82
2018-06-09T15:34:42.275Z,23.43
2018-06-09T15:37:11.163Z,20.15
2018-06-09T15:39:40.058Z,20.03
2018-06-09T15:42:09.071Z,23.03
2018-06-09T15:44:38.109Z,18.50
2018-06-09T15:47:07.148Z,22.05
2018-06-09T15:49:36.409Z,20.60
2018-06-09T15:52:05.148Z,20.40
2018-06-09T15:54:34.136Z,19.57
2018-06-09T15:57:02.916Z,20.08
2018-06-09T15:59:31.953Z,21.73
2018-06-09T16:02:00.773Z,21.30
2018-06-09T16:04:32.811Z,21.90
2018-06-09T16:07:01.843Z,21.57
2018-06-09T16:09:30.956Z,23.07
2018-06-09T16:12:00.006Z,20.80
2018-06-09T16:14:28.981Z,19.63
2018-06-09T16:16:58.069Z,19.33
2018-06-09T16:19:28.506Z,22.03
2018-06-09T16:21:58.538Z,20.40
2018-06-09T16:27:27.768Z,21.33
2018-06-09T16:29:58.406Z,19.53
2018-06-09T16:35:39.387Z,20.67
2018-06-09T16:38:11.318Z,22.73
2018-06-09T16:40:57.255Z,24.50
2018-06-09T16:43:29.641Z,23.40
2018-06-09T16:45:59.760Z,22.53
2018-06-09T16:48:28.486Z,21.93
2018-06-09T16:50:57.858Z,23.27
2018-06-09T16:53:26.832Z,23.27
2018-06-09T16:55:55.512Z,21.90
2018-06-09T16:58:24.285Z,21.67
2018-06-09T17:00:53.112Z,24.20
2018-06-09T17:03:22.218Z,22.07
2018-06-09T17:05:50.829Z,20.50
2018-06-09T17:08:26.776Z,20.57
2018-06-09T17:10:55.925Z,20.80
2018-06-09T17:13:38.287Z,22.63
2018-06-09T17:22:14.930Z,21.40
2018-06-09T17:24:44.800Z,24.20
2018-06-09T17:27:14.592Z,21.93
2018-06-09T17:29:43.974Z,24.67
2018-06-09T17:32:13.369Z,26.90
2018-06-09T17:37:18.259Z,26.17
2018-06-09T17:39:47.317Z,25.10
2018-06-09T17:42:16.850Z,24.60
2018-06-09T17:44:45.651Z,24.57
2018-06-09T17:47:15.097Z,27.43
2018-06-09T17:49:43.956Z,26.77
2018-06-09T17:52:12.855Z,26.97
2018-06-09T17:54:42.933Z,25.77
2018-06-09T17:57:11.748Z,26.00
2018-06-09T17:59:40.586Z,28.70
2018-06-09T18:02:09.526Z,25.20
2018-06-09T18:04:38.166Z,31.20
2018-06-09T18:07:07.036Z,28.37
2018-06-09T18:09:36.340Z,29.27
2018-06-09T18:12:05.288Z,31.00
2018-06-09T18:14:34.044Z,28.93
2018-06-09T18:17:03.146Z,27.87
2018-06-09T18:19:32.019Z,31.70
2018-06-09T18:22:00.553Z,32.13
2018-06-09T18:24:29.365Z,32.77
2018-06-09T18:26:59.177Z,32.93
2018-06-09T18:29:28.039Z,34.23
2018-06-09T18:31:57.038Z,33.83
2018-06-09T18:34:25.987Z,31.50
2018-06-09T18:36:54.717Z,31.77
2018-06-09T18:39:23.731Z,32.43
2018-06-09T18:41:52.753Z,32.07
2018-06-09T18:44:21.976Z,31.33
2018-06-09T18:46:50.836Z,32.80
2018-06-09T18:49:19.549Z,30.37
2018-06-09T18:51:49.394Z,30.90
2018-06-09T18:54:18.037Z,31.83
2018-06-09T18:56:46.813Z,31.63
2018-06-09T18:59:15.497Z,31.63
2018-06-09T19:01:45.533Z,33.70
2018-06-09T19:04:15.813Z,34.60
2018-06-09T19:06:48.053Z,33.03
2018-06-09T19:09:17.033Z,33.97
2018-06-09T19:11:45.901Z,33.70
2018-06-09T19:14:14.962Z,31.63
2018-06-09T19:16:44.259Z,32.07
2018-06-09T19:19:13.258Z,31.60
2018-06-09T19:21:42.187Z,34.00
2018-06-09T19:26:57.140Z,35.43
2018-06-09T19:29:27.297Z,32.07
2018-06-09T19:31:57.739Z,32.90
2018-06-09T19:34:27.370Z,31.60
2018-06-09T19:36:57.056Z,33.80
2018-06-09T19:39:26.770Z,32.87
2018-06-09T19:41:56.688Z,33.57
2018-06-09T19:44:34.165Z,33.53
2018-06-09T19:47:06.814Z,33.23
2018-06-09T19:49:36.646Z,33.07
2018-06-09T19:52:07.342Z,33.47
2018-06-09T19:54:36.346Z,30.70
2018-06-09T19:57:05.632Z,33.27
2018-06-09T19:59:34.969Z,32.47
2018-06-09T20:02:05.916Z,33.93
2018-06-09T20:04:35.719Z,32.43
2018-06-09T20:07:05.355Z,33.50
2018-06-09T20:09:35.156Z,33.17
2018-06-09T20:12:08.744Z,31.43
2018-06-09T20:14:40.336Z,32.10
2018-06-09T20:17:11.107Z,31.53
2018-06-09T20:19:41.124Z,32.40
2018-06-09T20:22:10.451Z,32.83
2018-06-09T20:24:40.139Z,32.27
2018-06-09T20:27:11.488Z,34.20
2018-06-09T20:29:41.184Z,33.17
2018-06-09T20:32:11.172Z,33.97
2018-06-09T20:34:40.196Z,32.87
2018-06-09T20:37:13.853Z,33.67
2018-06-09T20:39:43.018Z,32.03
2018-06-09T20:42:14.247Z,33.23
2018-06-09T20:47:21.358Z,34.37
2018-06-09T20:49:50.840Z,33.73
2018-06-09T20:52:20.042Z,34.00
2018-06-09T20:54:50.210Z,33.00
2018-06-09T20:57:19.973Z,34.23
2018-06-09T20:59:49.773Z,33.67
2018-06-09T21:02:19.109Z,32.17
2018-06-09T21:04:48.343Z,31.83
2018-06-09T21:07:18.627Z,33.27
2018-06-09T21:09:48.655Z,32.80
2018-06-09T21:12:17.757Z,32.93
2018-06-09T21:14:47.231Z,34.57
2018-06-09T21:17:16.319Z,32.07
2018-06-09T21:19:45.273Z,33.83
2018-06-09T21:22:14.694Z,34.10
2018-06-09T21:24:44.023Z,32.20
2018-06-09T21:27:18.130Z,33.70
2018-06-09T21:29:55.496Z,34.37
2018-06-09T21:32:28.033Z,32.33
2018-06-09T21:35:11.906Z,33.60
2018-06-09T21:37:43.816Z,36.13
2018-06-09T21:40:17.917Z,34.97
2018-06-09T21:42:52.165Z,31.67
2018-06-09T21:45:23.983Z,33.93
2018-06-09T21:47:53.237Z,35.50
2018-06-09T21:50:22.180Z,36.53
2018-06-09T21:52:51.271Z,36.03
2018-06-09T21:55:20.037Z,37.80
2018-06-09T21:57:48.749Z,32.87
2018-06-09T22:00:17.488Z,36.87
2018-06-09T22:02:46.143Z,36.50
2018-06-09T22:05:14.918Z,34.20
2018-06-09T22:07:43.747Z,37.00
2018-06-09T22:10:12.455Z,33.87
2018-06-09T22:12:41.158Z,33.67
2018-06-09T22:15:09.866Z,36.70
2018-06-09T22:17:38.574Z,36.47
2018-06-09T22:20:07.580Z,37.30
2018-06-09T22:22:37.252Z,38.07
2018-06-09T22:25:05.903Z,36.07
2018-06-09T22:27:34.477Z,34.20
2018-06-09T22:30:03.407Z,34.63
2018-06-09T22:32:32.187Z,32.03
2018-06-09T22:35:00.915Z,34.17
2018-06-09T22:37:29.608Z,32.23
2018-06-09T22:39:58.316Z,34.20
2018-06-09T22:42:26.929Z,33.30
2018-06-09T22:44:55.674Z,34.10
2018-06-09T22:47:24.453Z,32.40
2018-06-09T22:49:53.182Z,34.73
2018-06-09T22:52:21.880Z,32.93
2018-06-09T22:54:50.580Z,34.30
2018-06-09T22:57:19.368Z,33.87
2018-06-09T22:59:48.022Z,32.67
2018-06-09T23:02:16.660Z,35.33
2018-06-09T23:04:45.367Z,32.60
2018-06-09T23:07:14.081Z,33.10
2018-06-09T23:09:42.651Z,32.03
2018-06-09T23:12:11.242Z,31.87
2018-06-09T23:14:39.932Z,31.90
2018-06-09T23:17:08.550Z,31.70
2018-06-09T23:19:37.390Z,33.03
2018-06-09T23:22:06.070Z,33.53
2018-06-09T23:24:34.649Z,32.43
2018-06-09T23:27:03.309Z,30.60
2018-06-09T23:29:31.994Z,30.27
2018-06-09T23:32:00.735Z,29.20
2018-06-09T23:34:29.317Z,26.87
2018-06-09T23:36:57.908Z,22.20
2018-06-09T23:39:26.463Z,22.27
2018-06-09T23:41:55.151Z,26.00
2018-06-09T23:44:23.704Z,29.77
2018-06-09T23:46:52.340Z,33.20
2018-06-09T23:49:20.947Z,33.00
2018-06-09T23:51:49.562Z,32.67
2018-06-09T23:54:18.213Z,40.33
2018-06-09T23:56:46.905Z,48.27
2018-06-09T23:59:15.509Z,51.60
